PWSweather.com
Personal Weather Stations
Station Observations
MAHIABEACH
Mahia Beach, Mahia Peninsula Hawkes Bay -NZ 4108

Mahia BeachMahia Peninsula Hawkes Bay -NZ 4108

Lat: -39.087594, Lon: 177.87261128

Elevation: 20

Station Type: ScientificSales WS1093

http://wairoa.net/mahia/index.htm

Latest ConditionsUpdated 8:00:05 AM GMT+12:12 Monday, Apr 27, 2015
Currently Today's Max Today's Min Today's Average
Temperature 64.8°F18.2°C 64.8°F18.2°C 60.1°F15.6°C 61.6°F16.4°C
Dew Point 54.8°F12.7°C 58.8°F14.9°C 53.9°F12.2°C 56.2°F13.4°C
Winds 5.2 mph N8.4 kmh N 8.4 mph NE13.5 kmh NE - 5.8 mph 9.3 kmh
Wind Gusts 12.1 mph19.5 kmh 18.3 mph29.5 kmh - -
Humidity 70% 93% 70% 83%
Pressure 29.79 in1008.8 mb 29.96 in1014.6 mb 29.78 in1008.5 mb -
Hour Temp Dew Point Humidity Winds Wind Gusts Pressure Precip Precip Rate Daily Precip Total
08:00 AM 64.8°F18.2°C 54.8°F12.7°C 70% 5.2 mph N8.4 kmh N 12.1 mph19.5 kmh 29.79 in1008.8 mb 0.00 in0.0 mm 0.00 in0.0 mm 0.00 in0.0 mm
07:45 AM 64.8°F18.2°C 54.8°F12.7°C 70% 6.5 mph NNE10.5 kmh NNE 17.4 mph28.0 kmh 29.78 in1008.5 mb 0.00 in0.0 mm 0.00 in0.0 mm 0.00 in0.0 mm
07:30 AM 62.8°F17.1°C 56.5°F13.6°C 80% 3.2 mph NNE5.1 kmh NNE 8.3 mph13.4 kmh 29.78 in1008.5 mb 0.00 in0.0 mm 0.00 in0.0 mm 0.00 in0.0 mm
07:15 AM 62.4°F16.9°C 58.8°F14.9°C 88% 3.8 mph NE6.1 kmh NE 10.7 mph17.2 kmh 29.80 in1009.1 mb 0.00 in0.0 mm 0.00 in0.0 mm 0.00 in0.0 mm
07:00 AM 63.0°F17.2°C 58.7°F14.8°C 86% 5.7 mph NE9.2 kmh NE 14.5 mph23.3 kmh 29.82 in1009.8 mb 0.00 in0.0 mm 0.00 in0.0 mm 0.00 in0.0 mm
06:45 AM 62.4°F16.9°C 58.2°F14.6°C 86% 6.0 mph NE9.7 kmh NE 14.5 mph23.3 kmh 29.82 in1009.8 mb 0.00 in0.0 mm 0.00 in0.0 mm 0.00 in0.0 mm
06:30 AM 62.4°F16.9°C 57.5°F14.2°C 84% 6.0 mph NE9.7 kmh NE 12.1 mph19.5 kmh 29.84 in1010.5 mb 0.00 in0.0 mm 0.00 in0.0 mm 0.00 in0.0 mm
06:15 AM 61.9°F16.6°C 57.3°F14.1°C 85% 5.8 mph NE9.3 kmh NE 13.6 mph21.9 kmh 29.84 in1010.5 mb 0.00 in0.0 mm 0.00 in0.0 mm 0.00 in0.0 mm
06:00 AM 61.7°F16.5°C 57.5°F14.2°C 86% 4.4 mph NE7.1 kmh NE 10.7 mph17.2 kmh 29.85 in1010.8 mb 0.00 in0.0 mm 0.00 in0.0 mm 0.00 in0.0 mm
05:45 AM 61.5°F16.4°C 58.3°F14.6°C 89% 5.1 mph ENE8.2 kmh ENE 14.5 mph23.3 kmh 29.84 in1010.5 mb 0.00 in0.0 mm 0.00 in0.0 mm 0.00 in0.0 mm
05:30 AM 60.8°F16.0°C 58.2°F14.6°C 91% 5.3 mph NE8.5 kmh NE 13.0 mph20.9 kmh 29.85 in1010.8 mb 0.00 in0.0 mm 0.00 in0.0 mm 0.00 in0.0 mm
05:15 AM 60.1°F15.6°C 58.1°F14.5°C 93% 5.3 mph NE8.5 kmh NE 12.1 mph19.5 kmh 29.87 in1011.5 mb 0.00 in0.0 mm 0.00 in0.0 mm 0.00 in0.0 mm
05:00 AM 60.3°F15.7°C 57.9°F14.4°C 92% 4.6 mph NE7.4 kmh NE 12.1 mph19.5 kmh 29.87 in1011.5 mb 0.00 in0.0 mm 0.00 in0.0 mm 0.00 in0.0 mm
04:45 AM 61.0°F16.1°C 57.4°F14.1°C 88% 4.9 mph NE7.9 kmh NE 9.8 mph15.8 kmh 29.88 in1011.9 mb 0.00 in0.0 mm 0.00 in0.0 mm 0.00 in0.0 mm
04:30 AM 61.3°F16.3°C 56.5°F13.6°C 84% 5.7 mph NE9.2 kmh NE 13.6 mph21.9 kmh 29.88 in1011.9 mb 0.00 in0.0 mm 0.00 in0.0 mm 0.00 in0.0 mm
04:15 AM 61.2°F16.2°C 56.6°F13.7°C 85% 4.2 mph NNE6.8 kmh NNE 9.2 mph14.8 kmh 29.87 in1011.5 mb 0.00 in0.0 mm 0.00 in0.0 mm 0.00 in0.0 mm
04:00 AM 61.3°F16.3°C 55.8°F13.2°C 82% 4.9 mph NE7.9 kmh NE 13.0 mph20.9 kmh 29.88 in1011.9 mb 0.00 in0.0 mm 0.00 in0.0 mm 0.00 in0.0 mm
03:45 AM 61.3°F16.3°C 55.5°F13.1°C 81% 6.7 mph NE10.8 kmh NE 14.5 mph23.3 kmh 29.88 in1011.9 mb 0.00 in0.0 mm 0.00 in0.0 mm 0.00 in0.0 mm
03:30 AM 61.2°F16.2°C 55.3°F12.9°C 81% 6.8 mph NNE10.9 kmh NNE 15.9 mph25.6 kmh 29.88 in1011.9 mb 0.00 in0.0 mm 0.00 in0.0 mm 0.00 in0.0 mm
03:15 AM 61.0°F16.1°C 56.1°F13.4°C 84% 6.1 mph NE9.8 kmh NE 13.6 mph21.9 kmh 29.88 in1011.9 mb 0.00 in0.0 mm 0.00 in0.0 mm 0.00 in0.0 mm
03:00 AM 61.0°F16.1°C 55.8°F13.2°C 83% 5.3 mph NE8.5 kmh NE 15.2 mph24.5 kmh 29.90 in1012.5 mb 0.00 in0.0 mm 0.00 in0.0 mm 0.00 in0.0 mm
02:45 AM 61.2°F16.2°C 56.0°F13.3°C 83% 5.0 mph NE8.0 kmh NE 10.7 mph17.2 kmh 29.90 in1012.5 mb 0.00 in0.0 mm 0.00 in0.0 mm 0.00 in0.0 mm
02:30 AM 61.2°F16.2°C 56.0°F13.3°C 83% 6.0 mph NE9.7 kmh NE 14.5 mph23.3 kmh 29.90 in1012.5 mb 0.00 in0.0 mm 0.00 in0.0 mm 0.00 in0.0 mm
02:15 AM 61.0°F16.1°C 55.8°F13.2°C 83% 6.1 mph NE9.8 kmh NE 18.3 mph29.5 kmh 29.91 in1012.9 mb 0.00 in0.0 mm 0.00 in0.0 mm 0.00 in0.0 mm
02:00 AM 61.2°F16.2°C 55.3°F12.9°C 81% 7.2 mph NE11.6 kmh NE 14.5 mph23.3 kmh 29.92 in1013.2 mb 0.00 in0.0 mm 0.00 in0.0 mm 0.00 in0.0 mm
01:45 AM 61.0°F16.1°C 54.4°F12.4°C 79% 6.4 mph NNE10.3 kmh NNE 16.8 mph27.0 kmh 29.92 in1013.2 mb 0.00 in0.0 mm 0.00 in0.0 mm 0.00 in0.0 mm
01:30 AM 61.2°F16.2°C 54.3°F12.4°C 78% 6.8 mph NE10.9 kmh NE 15.2 mph24.5 kmh 29.93 in1013.5 mb 0.00 in0.0 mm 0.00 in0.0 mm 0.00 in0.0 mm
01:15 AM 61.2°F16.2°C 54.6°F12.6°C 79% 7.3 mph NE11.7 kmh NE 13.0 mph20.9 kmh 29.93 in1013.5 mb 0.00 in0.0 mm 0.00 in0.0 mm 0.00 in0.0 mm
01:00 AM 61.2°F16.2°C 55.3°F12.9°C 81% 5.0 mph NNE8.0 kmh NNE 12.1 mph19.5 kmh 29.94 in1013.9 mb 0.00 in0.0 mm 0.00 in0.0 mm 0.00 in0.0 mm
12:45 AM 61.2°F16.2°C 54.6°F12.6°C 79% 8.4 mph NE13.5 kmh NE 17.4 mph28.0 kmh 29.94 in1013.9 mb 0.00 in0.0 mm 0.00 in0.0 mm 0.00 in0.0 mm
12:30 AM 61.3°F16.3°C 55.1°F12.8°C 80% 7.9 mph NE12.7 kmh NE 18.3 mph29.5 kmh 29.95 in1014.2 mb 0.00 in0.0 mm 0.00 in0.0 mm 0.00 in0.0 mm
12:15 AM 61.2°F16.2°C 53.9°F12.2°C 77% 7.4 mph NNE11.9 kmh NNE 17.4 mph28.0 kmh 29.96 in1014.6 mb 0.00 in0.0 mm 0.00 in0.0 mm 0.00 in0.0 mm
12:00 AM 61.2°F16.2°C 54.3°F12.4°C 78% 7.0 mph NE11.3 kmh NE 15.9 mph25.6 kmh 29.96 in1014.6 mb 0.00 in0.0 mm 0.00 in0.0 mm 0.00 in0.0 mm